sensor_id;sensor_type;location;lat;lon;timestamp;P1;durP1;ratioP1;P2;durP2;ratioP2
10191;SDS011;17580;50.850;4.504;2023-08-07T00:01:46;7.07;;;2.73;;
10191;SDS011;17580;50.850;4.504;2023-08-07T00:04:13;5.10;;;2.20;;
10191;SDS011;17580;50.850;4.504;2023-08-07T00:06:40;4.90;;;2.43;;
10191;SDS011;17580;50.850;4.504;2023-08-07T00:09:07;5.53;;;2.40;;
10191;SDS011;17580;50.850;4.504;2023-08-07T00:11:35;6.43;;;2.50;;
10191;SDS011;17580;50.850;4.504;2023-08-07T00:14:02;5.57;;;2.27;;
10191;SDS011;17580;50.850;4.504;2023-08-07T00:16:31;4.27;;;2.47;;
10191;SDS011;17580;50.850;4.504;2023-08-07T00:18:58;5.53;;;2.40;;
10191;SDS011;17580;50.850;4.504;2023-08-07T00:21:26;2.53;;;2.10;;
10191;SDS011;17580;50.850;4.504;2023-08-07T00:23:53;4.73;;;2.23;;
10191;SDS011;17580;50.850;4.504;2023-08-07T00:26:21;3.77;;;2.30;;
10191;SDS011;17580;50.850;4.504;2023-08-07T00:28:48;3.07;;;2.10;;
10191;SDS011;17580;50.850;4.504;2023-08-07T00:31:15;2.13;;;1.70;;
10191;SDS011;17580;50.850;4.504;2023-08-07T00:33:44;2.50;;;2.30;;
10191;SDS011;17580;50.850;4.504;2023-08-07T00:36:12;3.17;;;2.17;;
10191;SDS011;17580;50.850;4.504;2023-08-07T00:38:39;7.33;;;2.07;;
10191;SDS011;17580;50.850;4.504;2023-08-07T00:41:06;4.07;;;2.33;;
10191;SDS011;17580;50.850;4.504;2023-08-07T00:43:35;3.53;;;2.00;;
10191;SDS011;17580;50.850;4.504;2023-08-07T00:46:02;4.40;;;2.20;;
10191;SDS011;17580;50.850;4.504;2023-08-07T00:48:29;5.77;;;3.10;;
10191;SDS011;17580;50.850;4.504;2023-08-07T00:51:00;8.00;;;2.43;;
10191;SDS011;17580;50.850;4.504;2023-08-07T00:53:28;3.43;;;2.10;;
10191;SDS011;17580;50.850;4.504;2023-08-07T00:55:56;3.30;;;2.03;;
10191;SDS011;17580;50.850;4.504;2023-08-07T00:58:23;2.13;;;1.90;;
10191;SDS011;17580;50.850;4.504;2023-08-07T01:00:51;3.57;;;2.17;;
10191;SDS011;17580;50.850;4.504;2023-08-07T01:03:18;3.47;;;2.27;;
10191;SDS011;17580;50.850;4.504;2023-08-07T01:05:45;3.77;;;2.40;;
10191;SDS011;17580;50.850;4.504;2023-08-07T01:08:14;3.10;;;1.90;;
10191;SDS011;17580;50.850;4.504;2023-08-07T01:10:45;9.17;;;3.20;;
10191;SDS011;17580;50.850;4.504;2023-08-07T01:13:19;2.50;;;1.50;;
10191;SDS011;17580;50.850;4.504;2023-08-07T01:15:49;5.50;;;2.50;;
10191;SDS011;17580;50.850;4.504;2023-08-07T01:18:17;2.83;;;2.00;;
10191;SDS011;17580;50.850;4.504;2023-08-07T01:20:44;5.60;;;2.17;;
10191;SDS011;17580;50.850;4.504;2023-08-07T01:23:13;2.87;;;1.90;;
10191;SDS011;17580;50.850;4.504;2023-08-07T01:25:40;6.60;;;2.03;;
10191;SDS011;17580;50.850;4.504;2023-08-07T01:28:09;4.73;;;2.90;;
10191;SDS011;17580;50.850;4.504;2023-08-07T01:30:40;2.63;;;1.80;;
10191;SDS011;17580;50.850;4.504;2023-08-07T01:33:09;2.87;;;2.00;;
10191;SDS011;17580;50.850;4.504;2023-08-07T01:35:40;5.67;;;2.10;;
10191;SDS011;17580;50.850;4.504;2023-08-07T01:38:09;2.37;;;2.00;;
10191;SDS011;17580;50.850;4.504;2023-08-07T01:40:39;3.43;;;2.17;;
10191;SDS011;17580;50.850;4.504;2023-08-07T01:43:06;2.03;;;1.83;;
10191;SDS011;17580;50.850;4.504;2023-08-07T01:45:33;1.60;;;1.50;;
10191;SDS011;17580;50.850;4.504;2023-08-07T01:48:01;4.23;;;2.07;;
10191;SDS011;17580;50.850;4.504;2023-08-07T01:50:28;4.43;;;2.10;;
10191;SDS011;17580;50.850;4.504;2023-08-07T01:52:56;3.10;;;1.90;;
10191;SDS011;17580;50.850;4.504;2023-08-07T01:55:23;2.30;;;2.10;;
10191;SDS011;17580;50.850;4.504;2023-08-07T01:57:52;2.30;;;2.10;;
10191;SDS011;17580;50.850;4.504;2023-08-07T02:00:19;4.60;;;2.17;;
10191;SDS011;17580;50.850;4.504;2023-08-07T02:02:47;2.93;;;1.70;;
10191;SDS011;17580;50.850;4.504;2023-08-07T02:05:14;5.30;;;2.00;;
10191;SDS011;17580;50.850;4.504;2023-08-07T02:07:42;4.67;;;2.33;;
10191;SDS011;17580;50.850;4.504;2023-08-07T02:10:09;2.60;;;1.80;;
10191;SDS011;17580;50.850;4.504;2023-08-07T02:12:36;3.60;;;2.00;;
10191;SDS011;17580;50.850;4.504;2023-08-07T02:15:06;3.40;;;1.90;;
10191;SDS011;17580;50.850;4.504;2023-08-07T02:17:34;3.20;;;1.63;;
10191;SDS011;17580;50.850;4.504;2023-08-07T02:20:04;1.80;;;1.70;;
10191;SDS011;17580;50.850;4.504;2023-08-07T02:22:31;2.00;;;1.77;;
10191;SDS011;17580;50.850;4.504;2023-08-07T02:24:57;4.37;;;2.33;;
10191;SDS011;17580;50.850;4.504;2023-08-07T02:27:25;1.70;;;1.60;;
10191;SDS011;17580;50.850;4.504;2023-08-07T02:29:52;6.77;;;2.13;;
10191;SDS011;17580;50.850;4.504;2023-08-07T02:32:21;6.73;;;2.13;;
10191;SDS011;17580;50.850;4.504;2023-08-07T02:34:48;10.50;;;2.50;;
10191;SDS011;17580;50.850;4.504;2023-08-07T02:37:16;2.33;;;1.60;;
10191;SDS011;17580;50.850;4.504;2023-08-07T02:39:44;1.70;;;1.60;;
10191;SDS011;17580;50.850;4.504;2023-08-07T02:42:11;2.37;;;2.00;;
10191;SDS011;17580;50.850;4.504;2023-08-07T02:44:38;3.20;;;1.97;;
10191;SDS011;17580;50.850;4.504;2023-08-07T02:47:05;3.37;;;1.87;;
10191;SDS011;17580;50.850;4.504;2023-08-07T02:49:34;6.40;;;2.50;;
10191;SDS011;17580;50.850;4.504;2023-08-07T02:52:02;1.50;;;1.40;;
10191;SDS011;17580;50.850;4.504;2023-08-07T02:54:29;4.70;;;1.87;;
10191;SDS011;17580;50.850;4.504;2023-08-07T02:56:57;3.27;;;2.10;;
10191;SDS011;17580;50.850;4.504;2023-08-07T02:59:24;4.40;;;1.83;;
10191;SDS011;17580;50.850;4.504;2023-08-07T03:01:51;7.90;;;2.30;;
10191;SDS011;17580;50.850;4.504;2023-08-07T03:04:19;4.43;;;1.57;;
10191;SDS011;17580;50.850;4.504;2023-08-07T03:06:47;5.07;;;2.03;;
10191;SDS011;17580;50.850;4.504;2023-08-07T03:09:15;2.37;;;1.90;;
10191;SDS011;17580;50.850;4.504;2023-08-07T03:11:42;3.33;;;2.03;;
10191;SDS011;17580;50.850;4.504;2023-08-07T03:14:09;2.60;;;1.83;;
10191;SDS011;17580;50.850;4.504;2023-08-07T03:16:36;7.00;;;1.80;;
10191;SDS011;17580;50.850;4.504;2023-08-07T03:19:04;2.77;;;1.93;;
10191;SDS011;17580;50.850;4.504;2023-08-07T03:21:31;1.80;;;1.70;;
10191;SDS011;17580;50.850;4.504;2023-08-07T03:24:00;2.17;;;1.60;;
10191;SDS011;17580;50.850;4.504;2023-08-07T03:26:27;4.83;;;1.90;;
10191;SDS011;17580;50.850;4.504;2023-08-07T03:28:54;2.53;;;1.97;;
10191;SDS011;17580;50.850;4.504;2023-08-07T03:31:22;3.77;;;2.03;;
10191;SDS011;17580;50.850;4.504;2023-08-07T03:33:49;5.20;;;1.73;;
10191;SDS011;17580;50.850;4.504;2023-08-07T03:36:16;3.90;;;1.97;;
10191;SDS011;17580;50.850;4.504;2023-08-07T03:38:43;6.53;;;2.03;;
10191;SDS011;17580;50.850;4.504;2023-08-07T03:41:12;3.60;;;1.97;;
10191;SDS011;17580;50.850;4.504;2023-08-07T03:43:40;2.20;;;2.00;;
10191;SDS011;17580;50.850;4.504;2023-08-07T03:46:07;3.10;;;1.63;;
10191;SDS011;17580;50.850;4.504;2023-08-07T03:48:34;7.83;;;2.20;;
10191;SDS011;17580;50.850;4.504;2023-08-07T03:51:02;3.93;;;1.63;;
10191;SDS011;17580;50.850;4.504;2023-08-07T03:53:29;2.73;;;1.80;;
10191;SDS011;17580;50.850;4.504;2023-08-07T03:55:57;2.77;;;2.00;;
10191;SDS011;17580;50.850;4.504;2023-08-07T03:58:25;7.10;;;2.50;;
10191;SDS011;17580;50.850;4.504;2023-08-07T04:00:53;4.67;;;2.10;;
10191;SDS011;17580;50.850;4.504;2023-08-07T04:03:20;3.77;;;2.20;;
10191;SDS011;17580;50.850;4.504;2023-08-07T04:05:47;14.60;;;2.47;;
10191;SDS011;17580;50.850;4.504;2023-08-07T04:08:18;4.07;;;2.03;;
10191;SDS011;17580;50.850;4.504;2023-08-07T04:10:45;3.53;;;2.27;;
10191;SDS011;17580;50.850;4.504;2023-08-07T04:13:13;7.07;;;1.97;;
10191;SDS011;17580;50.850;4.504;2023-08-07T04:15:42;4.37;;;2.13;;
10191;SDS011;17580;50.850;4.504;2023-08-07T04:18:09;3.10;;;2.07;;
10191;SDS011;17580;50.850;4.504;2023-08-07T04:20:37;4.70;;;2.30;;
10191;SDS011;17580;50.850;4.504;2023-08-07T04:23:04;4.07;;;2.40;;
10191;SDS011;17580;50.850;4.504;2023-08-07T04:25:32;3.37;;;2.30;;
10191;SDS011;17580;50.850;4.504;2023-08-07T04:27:59;2.93;;;1.50;;
10191;SDS011;17580;50.850;4.504;2023-08-07T04:30:26;2.43;;;2.00;;
10191;SDS011;17580;50.850;4.504;2023-08-07T04:32:55;3.40;;;1.50;;
10191;SDS011;17580;50.850;4.504;2023-08-07T04:35:22;5.10;;;2.10;;
10191;SDS011;17580;50.850;4.504;2023-08-07T04:37:50;2.47;;;1.70;;
10191;SDS011;17580;50.850;4.504;2023-08-07T04:40:17;4.30;;;1.77;;
10191;SDS011;17580;50.850;4.504;2023-08-07T04:42:44;2.30;;;2.10;;
10191;SDS011;17580;50.850;4.504;2023-08-07T04:45:11;3.50;;;2.67;;
10191;SDS011;17580;50.850;4.504;2023-08-07T04:47:39;2.30;;;1.63;;
10191;SDS011;17580;50.850;4.504;2023-08-07T04:50:08;3.07;;;2.20;;
10191;SDS011;17580;50.850;4.504;2023-08-07T04:52:36;4.23;;;2.40;;
10191;SDS011;17580;50.850;4.504;2023-08-07T04:55:04;7.40;;;1.97;;
10191;SDS011;17580;50.850;4.504;2023-08-07T04:57:31;7.20;;;2.27;;
10191;SDS011;17580;50.850;4.504;2023-08-07T04:59:58;4.33;;;1.90;;
10191;SDS011;17580;50.850;4.504;2023-08-07T05:02:26;2.87;;;2.10;;
10191;SDS011;17580;50.850;4.504;2023-08-07T05:04:53;2.03;;;1.93;;
10191;SDS011;17580;50.850;4.504;2023-08-07T05:07:22;4.23;;;2.10;;
10191;SDS011;17580;50.850;4.504;2023-08-07T05:09:51;3.63;;;2.30;;
10191;SDS011;17580;50.850;4.504;2023-08-07T05:12:18;2.90;;;2.00;;
10191;SDS011;17580;50.850;4.504;2023-08-07T05:14:45;3.10;;;2.30;;
10191;SDS011;17580;50.850;4.504;2023-08-07T05:17:13;5.40;;;2.40;;
10191;SDS011;17580;50.850;4.504;2023-08-07T05:19:40;6.50;;;2.10;;
10191;SDS011;17580;50.850;4.504;2023-08-07T05:22:07;3.83;;;2.23;;
10191;SDS011;17580;50.850;4.504;2023-08-07T05:24:36;2.70;;;2.00;;
10191;SDS011;17580;50.850;4.504;2023-08-07T05:27:05;9.03;;;2.60;;
10191;SDS011;17580;50.850;4.504;2023-08-07T05:29:33;6.00;;;2.23;;
10191;SDS011;17580;50.850;4.504;2023-08-07T05:32:08;7.23;;;2.20;;
10191;SDS011;17580;50.850;4.504;2023-08-07T05:34:35;3.20;;;2.30;;
10191;SDS011;17580;50.850;4.504;2023-08-07T05:37:03;5.13;;;2.43;;
10191;SDS011;17580;50.850;4.504;2023-08-07T05:39:30;3.30;;;2.33;;
10191;SDS011;17580;50.850;4.504;2023-08-07T05:41:59;2.63;;;2.43;;
10191;SDS011;17580;50.850;4.504;2023-08-07T05:44:26;3.53;;;1.90;;
10191;SDS011;17580;50.850;4.504;2023-08-07T05:46:54;2.13;;;1.87;;
10191;SDS011;17580;50.850;4.504;2023-08-07T05:49:21;6.23;;;1.87;;
10191;SDS011;17580;50.850;4.504;2023-08-07T05:51:49;3.73;;;2.53;;
10191;SDS011;17580;50.850;4.504;2023-08-07T05:54:16;4.67;;;1.90;;
10191;SDS011;17580;50.850;4.504;2023-08-07T05:56:43;5.07;;;2.40;;
10191;SDS011;17580;50.850;4.504;2023-08-07T05:59:12;3.83;;;2.57;;
10191;SDS011;17580;50.850;4.504;2023-08-07T06:01:40;5.50;;;2.47;;
10191;SDS011;17580;50.850;4.504;2023-08-07T06:04:07;2.37;;;2.00;;
10191;SDS011;17580;50.850;4.504;2023-08-07T06:06:35;2.43;;;2.20;;
10191;SDS011;17580;50.850;4.504;2023-08-07T06:09:04;3.23;;;2.40;;
10191;SDS011;17580;50.850;4.504;2023-08-07T06:11:32;2.47;;;2.27;;
10191;SDS011;17580;50.850;4.504;2023-08-07T06:13:59;6.43;;;2.67;;
10191;SDS011;17580;50.850;4.504;2023-08-07T06:16:28;5.33;;;2.27;;
10191;SDS011;17580;50.850;4.504;2023-08-07T06:18:55;6.17;;;2.87;;
10191;SDS011;17580;50.850;4.504;2023-08-07T06:21:22;4.77;;;2.43;;
10191;SDS011;17580;50.850;4.504;2023-08-07T06:23:50;4.63;;;2.73;;
10191;SDS011;17580;50.850;4.504;2023-08-07T06:26:17;5.10;;;2.70;;
10191;SDS011;17580;50.850;4.504;2023-08-07T06:28:44;4.50;;;2.53;;
10191;SDS011;17580;50.850;4.504;2023-08-07T06:31:12;2.87;;;1.90;;
10191;SDS011;17580;50.850;4.504;2023-08-07T06:33:40;5.10;;;2.73;;
10191;SDS011;17580;50.850;4.504;2023-08-07T06:36:08;3.77;;;2.13;;
10191;SDS011;17580;50.850;4.504;2023-08-07T06:38:35;4.17;;;2.20;;
10191;SDS011;17580;50.850;4.504;2023-08-07T06:41:02;8.07;;;2.03;;
10191;SDS011;17580;50.850;4.504;2023-08-07T06:43:30;4.77;;;2.80;;
10191;SDS011;17580;50.850;4.504;2023-08-07T06:45:57;5.57;;;2.37;;
10191;SDS011;17580;50.850;4.504;2023-08-07T06:48:24;3.30;;;2.20;;
10191;SDS011;17580;50.850;4.504;2023-08-07T06:50:53;8.83;;;2.67;;
10191;SDS011;17580;50.850;4.504;2023-08-07T06:53:20;3.77;;;2.53;;
10191;SDS011;17580;50.850;4.504;2023-08-07T06:55:47;3.80;;;2.70;;
10191;SDS011;17580;50.850;4.504;2023-08-07T06:58:15;4.70;;;2.83;;
10191;SDS011;17580;50.850;4.504;2023-08-07T07:00:42;3.20;;;2.33;;
10191;SDS011;17580;50.850;4.504;2023-08-07T07:03:09;3.40;;;2.30;;
10191;SDS011;17580;50.850;4.504;2023-08-07T07:05:37;2.80;;;2.60;;
10191;SDS011;17580;50.850;4.504;2023-08-07T07:08:05;4.53;;;2.10;;
10191;SDS011;17580;50.850;4.504;2023-08-07T07:10:33;3.63;;;2.63;;
10191;SDS011;17580;50.850;4.504;2023-08-07T07:13:00;3.87;;;2.80;;
10191;SDS011;17580;50.850;4.504;2023-08-07T07:15:27;4.53;;;2.13;;
10191;SDS011;17580;50.850;4.504;2023-08-07T07:17:55;3.63;;;2.30;;
10191;SDS011;17580;50.850;4.504;2023-08-07T07:20:22;5.70;;;2.47;;
10191;SDS011;17580;50.850;4.504;2023-08-07T07:22:49;3.77;;;3.00;;
10191;SDS011;17580;50.850;4.504;2023-08-07T07:25:18;2.63;;;1.83;;
10191;SDS011;17580;50.850;4.504;2023-08-07T07:27:45;6.43;;;2.70;;
10191;SDS011;17580;50.850;4.504;2023-08-07T07:30:12;2.73;;;2.47;;
10191;SDS011;17580;50.850;4.504;2023-08-07T07:32:40;6.10;;;2.50;;
10191;SDS011;17580;50.850;4.504;2023-08-07T07:35:07;3.53;;;1.97;;
10191;SDS011;17580;50.850;4.504;2023-08-07T07:37:35;2.43;;;2.10;;
10191;SDS011;17580;50.850;4.504;2023-08-07T07:40:02;3.57;;;2.27;;
10191;SDS011;17580;50.850;4.504;2023-08-07T07:42:31;3.23;;;2.20;;
10191;SDS011;17580;50.850;4.504;2023-08-07T07:44:58;4.97;;;3.17;;
10191;SDS011;17580;50.850;4.504;2023-08-07T07:47:26;3.10;;;2.83;;
10191;SDS011;17580;50.850;4.504;2023-08-07T07:50:03;4.83;;;2.00;;
10191;SDS011;17580;50.850;4.504;2023-08-07T07:52:31;5.50;;;2.10;;
10191;SDS011;17580;50.850;4.504;2023-08-07T07:54:58;2.97;;;2.00;;
10191;SDS011;17580;50.850;4.504;2023-08-07T07:57:26;3.33;;;1.93;;
10191;SDS011;17580;50.850;4.504;2023-08-07T07:59:54;4.03;;;2.30;;
10191;SDS011;17580;50.850;4.504;2023-08-07T08:02:22;2.77;;;2.13;;
10191;SDS011;17580;50.850;4.504;2023-08-07T08:04:50;2.90;;;1.90;;
10191;SDS011;17580;50.850;4.504;2023-08-07T08:07:17;2.63;;;2.03;;
10191;SDS011;17580;50.850;4.504;2023-08-07T08:09:45;3.47;;;2.20;;
10191;SDS011;17580;50.850;4.504;2023-08-07T08:12:12;2.37;;;1.93;;
10191;SDS011;17580;50.850;4.504;2023-08-07T08:14:39;4.87;;;2.30;;
10191;SDS011;17580;50.850;4.504;2023-08-07T08:17:08;4.63;;;1.73;;
10191;SDS011;17580;50.850;4.504;2023-08-07T08:19:36;3.67;;;1.77;;
10191;SDS011;17580;50.850;4.504;2023-08-07T08:22:03;1.90;;;1.80;;
10191;SDS011;17580;50.850;4.504;2023-08-07T08:24:30;2.57;;;2.33;;
10191;SDS011;17580;50.850;4.504;2023-08-07T08:26:58;1.80;;;1.70;;
10191;SDS011;17580;50.850;4.504;2023-08-07T08:29:25;5.70;;;2.37;;
10191;SDS011;17580;50.850;4.504;2023-08-07T08:31:53;1.60;;;1.50;;
10191;SDS011;17580;50.850;4.504;2023-08-07T08:34:22;3.37;;;2.27;;
10191;SDS011;17580;50.850;4.504;2023-08-07T08:36:49;2.83;;;1.90;;
10191;SDS011;17580;50.850;4.504;2023-08-07T08:39:16;4.10;;;2.07;;
10191;SDS011;17580;50.850;4.504;2023-08-07T08:41:45;2.23;;;2.03;;
10191;SDS011;17580;50.850;4.504;2023-08-07T08:44:14;4.50;;;2.40;;
10191;SDS011;17580;50.850;4.504;2023-08-07T08:46:41;3.63;;;2.27;;
10191;SDS011;17580;50.850;4.504;2023-08-07T08:49:09;4.70;;;1.90;;
10191;SDS011;17580;50.850;4.504;2023-08-07T08:51:38;3.30;;;1.90;;
10191;SDS011;17580;50.850;4.504;2023-08-07T08:54:06;2.00;;;1.90;;
10191;SDS011;17580;50.850;4.504;2023-08-07T08:56:34;4.53;;;2.30;;
10191;SDS011;17580;50.850;4.504;2023-08-07T08:59:01;1.93;;;1.83;;
10191;SDS011;17580;50.850;4.504;2023-08-07T09:01:29;2.90;;;2.10;;
10191;SDS011;17580;50.850;4.504;2023-08-07T09:03:56;2.30;;;2.10;;
10191;SDS011;17580;50.850;4.504;2023-08-07T09:06:24;2.70;;;2.03;;
10191;SDS011;17580;50.850;4.504;2023-08-07T09:08:54;3.27;;;1.77;;
10191;SDS011;17580;50.850;4.504;2023-08-07T09:11:22;8.10;;;2.40;;
10191;SDS011;17580;50.850;4.504;2023-08-07T09:13:49;1.63;;;1.53;;
10191;SDS011;17580;50.850;4.504;2023-08-07T09:16:17;2.00;;;1.50;;
10191;SDS011;17580;50.850;4.504;2023-08-07T09:18:44;2.20;;;2.00;;
10191;SDS011;17580;50.850;4.504;2023-08-07T09:21:13;1.87;;;1.70;;
10191;SDS011;17580;50.850;4.504;2023-08-07T09:23:42;2.00;;;1.73;;
10191;SDS011;17580;50.850;4.504;2023-08-07T09:26:10;1.60;;;1.50;;
10191;SDS011;17580;50.850;4.504;2023-08-07T09:28:38;2.20;;;1.80;;
10191;SDS011;17580;50.850;4.504;2023-08-07T09:31:05;3.03;;;1.90;;
10191;SDS011;17580;50.850;4.504;2023-08-07T09:33:34;5.73;;;2.33;;
10191;SDS011;17580;50.850;4.504;2023-08-07T09:36:02;2.00;;;1.87;;
10191;SDS011;17580;50.850;4.504;2023-08-07T09:38:29;2.30;;;1.87;;
10191;SDS011;17580;50.850;4.504;2023-08-07T09:40:57;2.73;;;1.80;;
10191;SDS011;17580;50.850;4.504;2023-08-07T09:43:26;1.97;;;1.63;;
10191;SDS011;17580;50.850;4.504;2023-08-07T09:46:01;2.40;;;1.70;;
10191;SDS011;17580;50.850;4.504;2023-08-07T09:48:28;1.97;;;1.87;;
10191;SDS011;17580;50.850;4.504;2023-08-07T09:50:58;1.70;;;1.60;;
10191;SDS011;17580;50.850;4.504;2023-08-07T09:53:29;2.07;;;1.60;;
10191;SDS011;17580;50.850;4.504;2023-08-07T09:55:56;1.77;;;1.70;;
10191;SDS011;17580;50.850;4.504;2023-08-07T09:58:24;3.53;;;1.70;;
10191;SDS011;17580;50.850;4.504;2023-08-07T10:00:52;1.80;;;1.70;;
10191;SDS011;17580;50.850;4.504;2023-08-07T10:03:20;1.70;;;1.60;;
10191;SDS011;17580;50.850;4.504;2023-08-07T10:05:49;1.60;;;1.53;;
10191;SDS011;17580;50.850;4.504;2023-08-07T10:08:17;1.63;;;1.50;;
10191;SDS011;17580;50.850;4.504;2023-08-07T10:10:45;1.90;;;1.80;;
10191;SDS011;17580;50.850;4.504;2023-08-07T10:13:13;2.13;;;1.93;;
10191;SDS011;17580;50.850;4.504;2023-08-07T10:15:41;1.40;;;1.40;;
10191;SDS011;17580;50.850;4.504;2023-08-07T10:18:09;2.20;;;1.60;;
10191;SDS011;17580;50.850;4.504;2023-08-07T10:20:37;1.50;;;1.40;;
10191;SDS011;17580;50.850;4.504;2023-08-07T10:23:07;1.80;;;1.70;;
10191;SDS011;17580;50.850;4.504;2023-08-07T10:25:35;3.07;;;1.60;;
10191;SDS011;17580;50.850;4.504;2023-08-07T10:28:03;1.60;;;1.50;;
10191;SDS011;17580;50.850;4.504;2023-08-07T10:30:32;1.90;;;1.80;;
10191;SDS011;17580;50.850;4.504;2023-08-07T10:33:00;1.67;;;1.50;;
10191;SDS011;17580;50.850;4.504;2023-08-07T10:35:31;2.40;;;1.83;;
10191;SDS011;17580;50.850;4.504;2023-08-07T10:38:05;2.73;;;1.80;;
10191;SDS011;17580;50.850;4.504;2023-08-07T10:40:33;2.73;;;1.40;;
10191;SDS011;17580;50.850;4.504;2023-08-07T10:43:11;3.10;;;1.67;;
10191;SDS011;17580;50.850;4.504;2023-08-07T10:45:39;1.60;;;1.50;;
10191;SDS011;17580;50.850;4.504;2023-08-07T10:48:06;1.40;;;1.40;;
10191;SDS011;17580;50.850;4.504;2023-08-07T10:50:48;1.50;;;1.40;;
10191;SDS011;17580;50.850;4.504;2023-08-07T10:53:18;1.60;;;1.50;;
10191;SDS011;17580;50.850;4.504;2023-08-07T10:55:46;1.40;;;1.30;;
10191;SDS011;17580;50.850;4.504;2023-08-07T10:58:24;1.67;;;1.57;;
10191;SDS011;17580;50.850;4.504;2023-08-07T11:00:52;2.23;;;1.60;;
10191;SDS011;17580;50.850;4.504;2023-08-07T11:03:20;2.43;;;1.60;;
10191;SDS011;17580;50.850;4.504;2023-08-07T11:05:48;1.90;;;1.40;;
10191;SDS011;17580;50.850;4.504;2023-08-07T11:08:16;1.40;;;1.40;;
10191;SDS011;17580;50.850;4.504;2023-08-07T11:10:48;1.30;;;1.30;;
10191;SDS011;17580;50.850;4.504;2023-08-07T11:13:16;1.67;;;1.30;;
10191;SDS011;17580;50.850;4.504;2023-08-07T11:15:45;1.20;;;1.20;;
10191;SDS011;17580;50.850;4.504;2023-08-07T11:18:13;1.40;;;1.30;;
10191;SDS011;17580;50.850;4.504;2023-08-07T11:20:41;1.50;;;1.50;;
10191;SDS011;17580;50.850;4.504;2023-08-07T11:23:10;1.90;;;1.50;;
10191;SDS011;17580;50.850;4.504;2023-08-07T11:25:38;1.40;;;1.30;;
10191;SDS011;17580;50.850;4.504;2023-08-07T11:28:05;3.27;;;2.03;;
10191;SDS011;17580;50.850;4.504;2023-08-07T11:30:33;2.07;;;1.90;;
10191;SDS011;17580;50.850;4.504;2023-08-07T11:33:01;1.60;;;1.47;;
10191;SDS011;17580;50.850;4.504;2023-08-07T11:35:30;1.70;;;1.60;;
10191;SDS011;17580;50.850;4.504;2023-08-07T11:37:57;2.50;;;1.70;;
10191;SDS011;17580;50.850;4.504;2023-08-07T11:40:26;2.03;;;1.57;;
10191;SDS011;17580;50.850;4.504;2023-08-07T11:42:53;1.80;;;1.70;;
10191;SDS011;17580;50.850;4.504;2023-08-07T11:45:21;2.50;;;1.90;;
10191;SDS011;17580;50.850;4.504;2023-08-07T11:47:49;1.53;;;1.43;;
10191;SDS011;17580;50.850;4.504;2023-08-07T11:50:16;1.40;;;1.30;;
10191;SDS011;17580;50.850;4.504;2023-08-07T11:52:43;1.67;;;1.57;;
10191;SDS011;17580;50.850;4.504;2023-08-07T11:55:13;1.80;;;1.70;;
10191;SDS011;17580;50.850;4.504;2023-08-07T11:57:42;2.50;;;1.40;;
10191;SDS011;17580;50.850;4.504;2023-08-07T12:00:10;1.80;;;1.70;;
10191;SDS011;17580;50.850;4.504;2023-08-07T12:02:41;1.40;;;1.40;;
10191;SDS011;17580;50.850;4.504;2023-08-07T12:05:08;1.60;;;1.50;;
10191;SDS011;17580;50.850;4.504;2023-08-07T12:07:37;1.60;;;1.50;;
10191;SDS011;17580;50.850;4.504;2023-08-07T12:10:06;2.67;;;1.60;;
10191;SDS011;17580;50.850;4.504;2023-08-07T12:12:35;1.70;;;1.60;;
10191;SDS011;17580;50.850;4.504;2023-08-07T12:15:04;1.43;;;1.40;;
10191;SDS011;17580;50.850;4.504;2023-08-07T12:17:33;1.23;;;1.20;;
10191;SDS011;17580;50.850;4.504;2023-08-07T12:20:02;2.37;;;1.90;;
10191;SDS011;17580;50.850;4.504;2023-08-07T12:22:31;1.73;;;1.63;;
10191;SDS011;17580;50.850;4.504;2023-08-07T12:24:58;1.20;;;1.20;;
10191;SDS011;17580;50.850;4.504;2023-08-07T12:27:26;1.70;;;1.60;;
10191;SDS011;17580;50.850;4.504;2023-08-07T12:29:53;1.50;;;1.40;;
10191;SDS011;17580;50.850;4.504;2023-08-07T12:32:22;1.40;;;1.40;;
10191;SDS011;17580;50.850;4.504;2023-08-07T12:34:49;1.77;;;1.67;;
10191;SDS011;17580;50.850;4.504;2023-08-07T12:37:18;1.63;;;1.53;;
10191;SDS011;17580;50.850;4.504;2023-08-07T12:39:46;1.60;;;1.50;;
10191;SDS011;17580;50.850;4.504;2023-08-07T12:42:14;1.67;;;1.40;;
10191;SDS011;17580;50.850;4.504;2023-08-07T12:44:41;1.20;;;1.20;;
10191;SDS011;17580;50.850;4.504;2023-08-07T12:47:09;3.13;;;1.47;;
10191;SDS011;17580;50.850;4.504;2023-08-07T12:49:38;1.87;;;1.73;;
10191;SDS011;17580;50.850;4.504;2023-08-07T12:52:05;1.63;;;1.53;;
10191;SDS011;17580;50.850;4.504;2023-08-07T12:54:32;1.70;;;1.60;;
10191;SDS011;17580;50.850;4.504;2023-08-07T12:57:00;1.60;;;1.53;;
10191;SDS011;17580;50.850;4.504;2023-08-07T12:59:27;1.47;;;1.37;;
10191;SDS011;17580;50.850;4.504;2023-08-07T13:01:54;2.00;;;1.50;;
10191;SDS011;17580;50.850;4.504;2023-08-07T13:04:21;1.13;;;1.10;;
10191;SDS011;17580;50.850;4.504;2023-08-07T13:06:50;1.83;;;1.73;;
10191;SDS011;17580;50.850;4.504;2023-08-07T13:09:17;1.70;;;1.40;;
10191;SDS011;17580;50.850;4.504;2023-08-07T13:11:45;1.50;;;1.30;;
10191;SDS011;17580;50.850;4.504;2023-08-07T13:14:12;1.20;;;1.20;;
10191;SDS011;17580;50.850;4.504;2023-08-07T13:16:40;2.93;;;1.30;;
10191;SDS011;17580;50.850;4.504;2023-08-07T13:19:07;1.63;;;1.30;;
10191;SDS011;17580;50.850;4.504;2023-08-07T13:21:34;1.23;;;1.23;;
10191;SDS011;17580;50.850;4.504;2023-08-07T13:24:03;1.00;;;1.00;;
10191;SDS011;17580;50.850;4.504;2023-08-07T13:26:31;1.63;;;1.40;;
10191;SDS011;17580;50.850;4.504;2023-08-07T13:28:58;1.27;;;1.17;;
10191;SDS011;17580;50.850;4.504;2023-08-07T13:31:25;1.00;;;1.00;;
10191;SDS011;17580;50.850;4.504;2023-08-07T13:33:53;1.33;;;1.23;;
10191;SDS011;17580;50.850;4.504;2023-08-07T13:36:20;2.10;;;1.10;;
10191;SDS011;17580;50.850;4.504;2023-08-07T13:38:47;1.33;;;1.20;;
10191;SDS011;17580;50.850;4.504;2023-08-07T13:41:16;2.20;;;1.40;;
10191;SDS011;17580;50.850;4.504;2023-08-07T13:43:43;1.20;;;1.20;;
10191;SDS011;17580;50.850;4.504;2023-08-07T13:46:10;0.97;;;0.97;;
10191;SDS011;17580;50.850;4.504;2023-08-07T13:48:38;1.23;;;1.13;;
10191;SDS011;17580;50.850;4.504;2023-08-07T13:51:05;1.30;;;1.20;;
10191;SDS011;17580;50.850;4.504;2023-08-07T13:53:33;1.07;;;1.07;;
10191;SDS011;17580;50.850;4.504;2023-08-07T13:56:00;1.00;;;1.00;;
10191;SDS011;17580;50.850;4.504;2023-08-07T13:58:29;0.90;;;0.90;;
10191;SDS011;17580;50.850;4.504;2023-08-07T14:00:56;1.30;;;1.20;;
10191;SDS011;17580;50.850;4.504;2023-08-07T14:03:24;1.07;;;1.07;;
10191;SDS011;17580;50.850;4.504;2023-08-07T14:05:51;3.40;;;1.20;;
10191;SDS011;17580;50.850;4.504;2023-08-07T14:08:19;1.20;;;1.20;;
10191;SDS011;17580;50.850;4.504;2023-08-07T14:10:46;2.80;;;1.00;;
10191;SDS011;17580;50.850;4.504;2023-08-07T14:13:13;1.83;;;1.10;;
10191;SDS011;17580;50.850;4.504;2023-08-07T14:15:42;1.10;;;1.10;;
10191;SDS011;17580;50.850;4.504;2023-08-07T14:18:09;1.00;;;1.00;;
10191;SDS011;17580;50.850;4.504;2023-08-07T14:20:40;1.37;;;1.27;;
10191;SDS011;17580;50.850;4.504;2023-08-07T14:23:07;1.00;;;1.00;;
10191;SDS011;17580;50.850;4.504;2023-08-07T14:25:34;1.40;;;1.30;;
10191;SDS011;17580;50.850;4.504;2023-08-07T14:28:01;0.90;;;0.90;;
10191;SDS011;17580;50.850;4.504;2023-08-07T14:30:29;0.90;;;0.90;;
10191;SDS011;17580;50.850;4.504;2023-08-07T14:32:57;1.10;;;1.10;;
10191;SDS011;17580;50.850;4.504;2023-08-07T14:35:25;1.17;;;1.17;;
10191;SDS011;17580;50.850;4.504;2023-08-07T14:37:52;1.57;;;1.30;;
10191;SDS011;17580;50.850;4.504;2023-08-07T14:40:19;1.23;;;1.00;;
10191;SDS011;17580;50.850;4.504;2023-08-07T14:42:47;1.07;;;1.03;;
10191;SDS011;17580;50.850;4.504;2023-08-07T14:45:14;0.90;;;0.90;;
10191;SDS011;17580;50.850;4.504;2023-08-07T14:47:42;1.00;;;1.00;;
10191;SDS011;17580;50.850;4.504;2023-08-07T14:50:11;1.53;;;1.20;;
10191;SDS011;17580;50.850;4.504;2023-08-07T14:52:38;1.03;;;1.03;;